Αναφορές Αεροδρομίων

 

KSJC - San Jose, California, USA
Distance from station: ΒΑ 14km
Ενημερώθηκε: 26/02/2021 22:53
Αίθριος
Αίθριος
 Ανεμος από ΒΒΔ
Ανεμος: ΒΒΔ 15 km/h
Θερμοκρασία: 17°C
Σημείο Δρόσου: 2°C
Υγρασία: 37%
Βαρόμετρο: 1021 hPa
Clouds: Αίθριος
Visibility: 16 km
2021/02/26 20:53 KSJC 262053Z 34008KT 10SM CLR 17/02 A3015 RMK AO2 SLP207 T01670017 58025
KNUQ - Moffett Nas/Mtn, California, USA
Distance from station: Β 14km
Ενημερώθηκε: 26/02/2021 23:10
Αίθριος
Αίθριος
 Ανεμος από Β
Ανεμος: Β 31 km/h
Θερμοκρασία: 15°C
Σημείο Δρόσου: 6°C
Υγρασία: 55%
Βαρόμετρο: 1020.7 hPa
Clouds: Αίθριος
Visibility: 14 km
2021/02/26 21:10 KNUQ 262110Z AUTO 35017KT 9SM CLR 15/06 A3014 RMK AO2
 
KPAO - Palo Alto, California, USA
Distance from station: ΒΒΔ 23km
Ενημερώθηκε: 26/02/2021 22:47
Αίθριος
Αίθριος
 Ανεμος από ΒΒΔ
Ανεμος: ΒΒΔ 22 km/h
Θερμοκρασία: 16°C
Σημείο Δρόσου: 6°C
Υγρασία: 52%
Βαρόμετρο: 1021 hPa
Clouds: Αίθριος
Visibility: 16 km
2021/02/26 20:47 KPAO 262047Z 34012KT 10SM SKC 16/06 A3015
KRHV - San Jose/Reid, California, USA
Distance from station: ΑΒΑ 19km
Ενημερώθηκε: 26/02/2021 22:47
Αίθριος
Αίθριος
 Ανεμος από Δ
Ανεμος: Δ 9 km/h
Θερμοκρασία: 16°C
Σημείο Δρόσου: 5°C
Υγρασία: 48%
Βαρόμετρο: 1021 hPa
Clouds: Αίθριος
Visibility: 16 km
2021/02/26 20:47 KRHV 262047Z 28005KT 10SM SKC 16/05 A3015
 
KOAK - Oakland, California, USA
Distance from station: ΒΒΔ 50km
Ενημερώθηκε: 26/02/2021 22:53
Few Clouds
Few Clouds
 Ανεμος από ΔΝΔ
Ανεμος: ΔΝΔ 9 km/h
Θερμοκρασία: 16°C
Σημείο Δρόσου: 6°C
Υγρασία: 52%
Βαρόμετρο: 1021.7 hPa
Clouds: Few Clouds
Visibility: 16 km
Cloud details: Few Clouds 305 m
2021/02/26 20:53 KOAK 262053Z 25005KT 10SM FEW010 16/06 A3017 RMK AO2 SLP218 T01610056 56024
KSQL - San Carlos Airpo, California, USA
Distance from station: ΒΔ 34km
Ενημερώθηκε: 26/02/2021 22:47
Αίθριος
Αίθριος
 Ανεμος από ΒΔ
Ανεμος: ΒΔ 24 km/h, Ριπή: 33 km/h
Θερμοκρασία: 15°C
Σημείο Δρόσου: 4°C
Υγρασία: 48%
Βαρόμετρο: 1021.7 hPa
Clouds: Αίθριος
Visibility: 16 km
2021/02/26 20:47 KSQL 262047Z 31013G18KT 10SM SKC 15/04 A3017
 
KSFO - San Francisco, California, USA
Distance from station: ΒΔ 49km
Ενημερώθηκε: 26/02/2021 22:56
Αίθριος
Αίθριος
 Ανεμος από ΔΒΔ
Ανεμος: ΔΒΔ 31 km/h
Θερμοκρασία: 15°C
Σημείο Δρόσου: 6°C
Υγρασία: 55%
Βαρόμετρο: 1021.3 hPa
Clouds: Αίθριος
Visibility: 16 km
2021/02/26 20:56 KSFO 262056Z 30017KT 10SM CLR 15/06 A3016 RMK AO2 SLP214 T01500056 58022
KE16 - San Martin, California, USA
Distance from station: ΑΝΑ 43km
Ενημερώθηκε: 26/02/2021 22:55
Αίθριος
Αίθριος
 Ανεμος από ΒΒΔ
Ανεμος: ΒΒΔ 20 km/h, Ριπή: 28 km/h
Θερμοκρασία: 17°C
Σημείο Δρόσου: 3°C
Υγρασία: 39%
Βαρόμετρο: 1020.7 hPa
Clouds: Αίθριος
Visibility: 16 km
2021/02/26 20:55 KE16 262055Z AUTO 33011G15KT 10SM CLR 17/03 A3014 RMK AO2
 
KWVI - Watsonville, California, USA
Distance from station: ΝΝΑ 44km
Ενημερώθηκε: 26/02/2021 22:53
Αίθριος
Αίθριος
 Ανεμος από ΝΝΔ
Ανεμος: ΝΝΔ 15 km/h
Θερμοκρασία: 16°C
Σημείο Δρόσου: 6°C
Υγρασία: 52%
Βαρόμετρο: 1020.7 hPa
Clouds: Αίθριος
Visibility: 16 km
2021/02/26 20:53 KWVI 262053Z AUTO 21008KT 10SM CLR 16/06 A3014 RMK AO2 SLP207 T01560056 58025
KHAF - Half Moon Bay, California, USA
Distance from station: ΔΒΔ 50km
Ενημερώθηκε: 26/02/2021 23:15
Haze, Αίθριος
Haze, Αίθριος
 Ανεμος από ΒΒΔ
Ανεμος: ΒΒΔ 33 km/h, Ριπή: 50 km/h
Θερμοκρασία: 12°C
Σημείο Δρόσου: 7°C
Υγρασία: 72%
Βαρόμετρο: 1021.7 hPa
Περίληψη: Haze
Clouds: Αίθριος
Visibility: 6 km
2021/02/26 21:15 KHAF 262115Z AUTO 34018G27KT 4SM HZ CLR 12/07 A3017 RMK AO2
 
KHWD - Hayward, California, USA
Distance from station: Β 44km
Ενημερώθηκε: 26/02/2021 22:54
Αίθριος
Αίθριος
 Ανεμος από Δ
Ανεμος: Δ 15 km/h
Θερμοκρασία: 15°C
Σημείο Δρόσου: 4°C
Υγρασία: 48%
Βαρόμετρο: 1021.3 hPa
Clouds: Αίθριος
Visibility: 16 km
2021/02/26 20:54 KHWD 262054Z 27008KT 10SM CLR 15/04 A3016 RMK AO2 SLP223 T01500039 58022
KLVK - Livermore, California, USA
Distance from station: ΒΒΑ 51km
Ενημερώθηκε: 26/02/2021 22:53
Αίθριος
Αίθριος
 Ανεμος από ΔΝΔ
Ανεμος: ΔΝΔ 13 km/h
Θερμοκρασία: 18°C
Σημείο Δρόσου: 3°C
Υγρασία: 37%
Βαρόμετρο: 1020.3 hPa
Clouds: Αίθριος
Visibility: 16 km
2021/02/26 20:53 KLVK 262053Z 25007KT 10SM CLR 18/03 A3013 RMK AO2 SLP201 T01780033 58027